»·PEaware :: N946S KIWA-KNYL

N946S :: KIWA-KNYL

FLIGHT INFORMATION

Flight Status: Arrived
Operator: Privately registered:
United States
More flights under this callsign
Pilot: Ethan S. (29221)
Aircraft: SOCATA TBM-900
(TBM9)
More flights by this aircraft type
Origin: KIWA Williams Gateway
United States
Destination: KNYL Yuma MCAS/Yuma Intl
United States
More flights between these airports :: More routes between these airports
Route: IFNUR
File this flight plan on PilotEdge
Remarks:
Altitude:
(Current/Filed)
16,500ft
Speed:
(Current/Filed)
280kts
Departed: 07-Oct-20 05:29 PM
Arrived: 07-Oct-20 06:10 PM
Distance/Time
Traveled:
154nm/0:41
Distance/Time
To Go:
Arrived

Flight Plot

Page will automatically refresh every two minutes.

Flight plan parsing failed; only flown route is shown


Map Options




Map Legend


Flown Route
Filed Route
Departure Airport
Arrival Airport
Navaid (VOR, NDB)
Fix

Horizontal Profiles

Position Reports

Time Latitude Longitude Heading Altitude Ground
Speed
07-Oct-20 17:21 33.311586 -111.669920 46 1348ft 0kts
07-Oct-20 17:22 33.311598 -111.669906 46 1348ft 0kts
07-Oct-20 17:23 33.312040 -111.669384 42 1349ft 9kts
07-Oct-20 17:24 33.309929 -111.665879 135 1353ft 17kts
07-Oct-20 17:25 33.307129 -111.662617 135 1359ft 11kts
07-Oct-20 17:26 33.303605 -111.658490 134 1364ft 17kts
07-Oct-20 17:27 33.300203 -111.654515 135 1369ft 16kts
07-Oct-20 17:28 33.296951 -111.650755 135 1373ft 15kts
07-Oct-20 17:29 33.305265 -111.658363 316 1522ft 110kts
07-Oct-20 17:30 33.301233 -111.689562 179 3420ft 144kts
07-Oct-20 17:31 33.257705 -111.685448 177 5373ft 164kts
07-Oct-20 17:32 33.217084 -111.728998 233 5505ft 215kts
07-Oct-20 17:32 33.186777 -111.777413 234 5496ft 212kts
07-Oct-20 17:34 33.154533 -111.850289 258 5494ft 209kts
07-Oct-20 17:34 33.145831 -111.902140 257 7497ft 150kts
07-Oct-20 17:35 33.138222 -111.947276 255 10157ft 140kts
07-Oct-20 17:36 33.130257 -111.994121 253 12528ft 146kts
07-Oct-20 17:37 33.121935 -112.042729 254 14848ft 151kts
07-Oct-20 17:38 33.112956 -112.095148 255 16542ft 194kts
07-Oct-20 17:39 33.099801 -112.171895 256 16500ft 251kts
07-Oct-20 17:40 33.084724 -112.259667 256 16481ft 266kts
07-Oct-20 17:41 33.069169 -112.349818 256 16470ft 270kts
07-Oct-20 17:42 33.053456 -112.440434 256 16461ft 272kts
07-Oct-20 17:43 33.037647 -112.531172 256 16454ft 273kts
07-Oct-20 17:44 33.021467 -112.623615 256 16452ft 274kts
07-Oct-20 17:45 33.005052 -112.716956 256 16508ft 273kts
07-Oct-20 17:46 32.988273 -112.811926 256 16536ft 275kts
07-Oct-20 17:47 32.971233 -112.907860 256 16536ft 275kts
07-Oct-20 17:48 32.954241 -113.003088 257 16536ft 273kts
07-Oct-20 17:49 32.937191 -113.098394 258 16536ft 272kts
07-Oct-20 17:50 32.920043 -113.193698 258 16536ft 272kts
07-Oct-20 17:51 32.902947 -113.288250 258 16536ft 272kts
07-Oct-20 17:52 32.885835 -113.382455 258 16535ft 272kts
07-Oct-20 17:53 32.868777 -113.475946 258 16535ft 272kts
07-Oct-20 17:54 32.851399 -113.570774 258 16531ft 272kts
07-Oct-20 17:55 32.834254 -113.663908 257 16522ft 272kts
07-Oct-20 17:56 32.816762 -113.758523 257 16511ft 273kts
07-Oct-20 17:57 32.799244 -113.852845 257 16509ft 273kts
07-Oct-20 17:58 32.781550 -113.947684 257 15592ft 286kts
07-Oct-20 17:59 32.763389 -114.044574 257 14198ft 290kts
07-Oct-20 18:00 32.744847 -114.143084 257 12628ft 293kts
07-Oct-20 18:01 32.726683 -114.239117 257 10825ft 252kts
07-Oct-20 18:02 32.712452 -114.314111 257 8662ft 205kts
07-Oct-20 18:03 32.700127 -114.378831 256 6531ft 185kts
07-Oct-20 18:04 32.688606 -114.439152 256 4414ft 175kts
07-Oct-20 18:05 32.667430 -114.485863 268 2548ft 120kts
07-Oct-20 18:06 32.667118 -114.521315 266 1708ft 98kts
07-Oct-20 18:07 32.666584 -114.554362 267 928ft 95kts
07-Oct-20 18:08 32.666143 -114.586603 266 250ft 89kts
07-Oct-20 18:09 32.665932 -114.604573 269 193ft 30kts
07-Oct-20 18:10 32.664842 -114.605572 180 192ft 4kts
07-Oct-20 18:11 32.661980 -114.605568 195 190ft 11kts
07-Oct-20 18:12 32.661776 -114.609236 224 190ft 9kts
07-Oct-20 18:13 32.661028 -114.609455 90 190ft 0kts

Navigation Log

Ident Type
Flight plan parsing failed, navigation log unavailable